Time;durP1;ratioP1;P1;durP2;ratioP2;P2;SDS_P1;SDS_P2;PMS_P1;PMS_P2;Temp;Humidity;BMP_temperature;BMP_pressure;BME280_temperature;BME280_humidity;BME280_pressure;Samples;Min_cycle;Max_cycle;Signal;HPM_P1;HPM_P2
2022/03/24 00:01:54;;;;;;;42.10;24.60;;;;;;;;;;5077307;28;20207;-48
2022/03/24 00:04:21;;;;;;;43.20;25.47;;;;;;;;;;5077409;28;20234;-48
2022/03/24 00:06:49;;;;;;;41.30;23.03;;;;;;;;;;5077490;28;20290;-49
2022/03/24 00:09:16;;;;;;;38.47;22.93;;;;;;;;;;5077131;28;20199;-48
2022/03/24 00:11:43;;;;;;;41.27;23.33;;;;;;;;;;5077385;28;20207;-48
2022/03/24 00:14:10;;;;;;;41.80;23.47;;;;;;;;;;5077307;28;20282;-49
2022/03/24 00:16:37;;;;;;;44.93;22.63;;;;;;;;;;5077497;28;20238;-48
2022/03/24 00:19:04;;;;;;;39.70;22.33;;;;;;;;;;5076978;28;20638;-48
2022/03/24 00:21:31;;;;;;;43.87;24.27;;;;;;;;;;5077252;28;20575;-48
2022/03/24 00:23:58;;;;;;;45.30;22.83;;;;;;;;;;5077325;28;20273;-48
2022/03/24 00:26:26;;;;;;;44.13;24.50;;;;;;;;;;5077037;28;20207;-49
2022/03/24 00:28:53;;;;;;;45.47;24.00;;;;;;;;;;5059688;28;20340;-48
2022/03/24 00:31:20;;;;;;;44.60;26.03;;;;;;;;;;5059170;28;20207;-49
2022/03/24 00:33:47;;;;;;;45.67;26.20;;;;;;;;;;5076617;28;20309;-48
2022/03/24 00:36:15;;;;;;;51.17;26.73;;;;;;;;;;5077443;28;20260;-49
2022/03/24 00:38:43;;;;;;;47.13;26.93;;;;;;;;;;5076741;28;20668;-51
2022/03/24 00:41:10;;;;;;;79.50;35.13;;;;;;;;;;5097360;28;20198;-48
2022/03/24 00:43:38;;;;;;;74.70;34.80;;;;;;;;;;5079110;28;20281;-49
2022/03/24 00:46:05;;;;;;;64.10;33.70;;;;;;;;;;5079686;28;20206;-49
2022/03/24 00:48:33;;;;;;;439.77;173.53;;;;;;;;;;5079102;28;20333;-52
2022/03/24 00:51:00;;;;;;;131.87;56.73;;;;;;;;;;5096775;28;20264;-49
2022/03/24 00:53:29;;;;;;;73.87;38.13;;;;;;;;;;5077771;28;20202;-49
2022/03/24 00:55:58;;;;;;;59.77;33.30;;;;;;;;;;5056888;28;20223;-48
2022/03/24 00:58:26;;;;;;;60.43;34.10;;;;;;;;;;5039438;28;20235;-48
2022/03/24 01:00:53;;;;;;;62.00;33.23;;;;;;;;;;5056478;28;20208;-48
2022/03/24 01:03:21;;;;;;;62.20;33.47;;;;;;;;;;5056217;28;20210;-48
2022/03/24 01:05:49;;;;;;;76.73;35.43;;;;;;;;;;5051623;28;20208;-49
2022/03/24 01:08:18;;;;;;;97.73;39.50;;;;;;;;;;5055428;28;20195;-49
2022/03/24 01:10:45;;;;;;;314.97;111.70;;;;;;;;;;5056605;28;20208;-49
2022/03/24 01:13:12;;;;;;;66.20;34.93;;;;;;;;;;5056490;28;20342;-49
2022/03/24 01:15:41;;;;;;;58.40;32.50;;;;;;;;;;5055985;28;20232;-49
2022/03/24 01:18:10;;;;;;;56.50;33.50;;;;;;;;;;5055257;28;20592;-49
2022/03/24 01:20:37;;;;;;;61.03;32.43;;;;;;;;;;5055934;28;20211;-49
2022/03/24 01:23:04;;;;;;;54.33;31.50;;;;;;;;;;5038654;28;20283;-50
2022/03/24 01:25:31;;;;;;;55.07;30.43;;;;;;;;;;5055917;28;20655;-48
2022/03/24 01:27:59;;;;;;;52.30;28.67;;;;;;;;;;5056229;28;20300;-49
2022/03/24 01:30:26;;;;;;;54.83;30.57;;;;;;;;;;5055647;28;20234;-48
2022/03/24 01:32:54;;;;;;;52.70;29.03;;;;;;;;;;5038666;28;20621;-48
2022/03/24 01:35:21;;;;;;;49.93;28.87;;;;;;;;;;5072769;28;20199;-48
2022/03/24 01:37:48;;;;;;;49.67;27.90;;;;;;;;;;5076283;28;20550;-48
2022/03/24 01:40:16;;;;;;;49.63;28.70;;;;;;;;;;5075730;28;20298;-48
2022/03/24 01:42:43;;;;;;;50.03;29.50;;;;;;;;;;5075266;28;20223;-48
2022/03/24 01:45:11;;;;;;;51.07;28.27;;;;;;;;;;5057834;28;20642;-48
2022/03/24 01:47:38;;;;;;;59.30;29.97;;;;;;;;;;5075543;28;20238;-48
2022/03/24 01:50:07;;;;;;;47.77;26.67;;;;;;;;;;5075233;28;20233;-48
2022/03/24 01:52:34;;;;;;;53.90;27.90;;;;;;;;;;5058031;28;20283;-47
2022/03/24 01:55:04;;;;;;;49.43;28.17;;;;;;;;;;5058058;28;20223;-47
2022/03/24 01:57:31;;;;;;;46.70;26.23;;;;;;;;;;5058153;28;20226;-48
2022/03/24 02:00:00;;;;;;;48.00;25.37;;;;;;;;;;5057911;28;20252;-48
2022/03/24 02:02:28;;;;;;;47.67;26.57;;;;;;;;;;5058082;28;20217;-50
2022/03/24 02:04:55;;;;;;;50.40;27.93;;;;;;;;;;5057860;28;20235;-48
2022/03/24 02:07:32;;;;;;;42.97;24.93;;;;;;;;;;5057865;28;20234;-48
2022/03/24 02:09:59;;;;;;;45.53;25.77;;;;;;;;;;5057827;28;20233;-48
2022/03/24 02:12:26;;;;;;;48.43;26.37;;;;;;;;;;5075312;28;20207;-47
2022/03/24 02:14:58;;;;;;;48.33;25.83;;;;;;;;;;5057471;28;20586;-48
2022/03/24 02:17:30;;;;;;;50.63;26.53;;;;;;;;;;5057854;28;20611;-49
2022/03/24 02:19:58;;;;;;;47.17;25.37;;;;;;;;;;5057359;28;20588;-48
2022/03/24 02:22:26;;;;;;;45.00;25.30;;;;;;;;;;5056585;28;20203;-48
2022/03/24 02:24:54;;;;;;;48.10;26.40;;;;;;;;;;5075233;28;20290;-49
2022/03/24 02:27:24;;;;;;;41.40;22.37;;;;;;;;;;5074603;28;20246;-48
2022/03/24 02:29:51;;;;;;;45.23;24.67;;;;;;;;;;5074712;28;20593;-48
2022/03/24 02:32:20;;;;;;;43.20;23.30;;;;;;;;;;5074759;28;20227;-48
2022/03/24 02:34:48;;;;;;;44.23;22.07;;;;;;;;;;5074685;28;20290;-48
2022/03/24 02:37:19;;;;;;;47.37;22.90;;;;;;;;;;5074549;28;20231;-48
2022/03/24 02:39:48;;;;;;;42.73;21.80;;;;;;;;;;5074926;28;20291;-48
2022/03/24 02:42:19;;;;;;;39.00;22.23;;;;;;;;;;5074565;28;20295;-48
2022/03/24 02:44:51;;;;;;;44.00;23.70;;;;;;;;;;5075042;28;20217;-48
2022/03/24 02:47:19;;;;;;;39.47;21.83;;;;;;;;;;5075001;28;20234;-47
2022/03/24 02:49:48;;;;;;;40.93;23.07;;;;;;;;;;5074465;28;20302;-49
2022/03/24 02:52:16;;;;;;;41.00;22.17;;;;;;;;;;5074703;28;20642;-48
2022/03/24 02:54:43;;;;;;;39.07;22.40;;;;;;;;;;5074628;28;20517;-48
2022/03/24 02:57:11;;;;;;;37.30;22.07;;;;;;;;;;5074613;28;20764;-48
2022/03/24 02:59:39;;;;;;;38.17;21.43;;;;;;;;;;5074501;28;20204;-48
2022/03/24 03:02:09;;;;;;;35.97;21.13;;;;;;;;;;5074488;28;20665;-48
2022/03/24 03:04:37;;;;;;;40.97;21.97;;;;;;;;;;5074534;28;20299;-48
2022/03/24 03:07:04;;;;;;;34.67;20.50;;;;;;;;;;5074520;28;20203;-47
2022/03/24 03:09:33;;;;;;;47.00;22.67;;;;;;;;;;5074301;28;20646;-48
2022/03/24 03:12:00;;;;;;;42.97;21.57;;;;;;;;;;5074667;28;20203;-48
2022/03/24 03:14:29;;;;;;;37.70;22.80;;;;;;;;;;5074346;28;20210;-48
2022/03/24 03:16:57;;;;;;;39.07;22.53;;;;;;;;;;5074507;28;20259;-48
2022/03/24 03:19:25;;;;;;;36.90;21.60;;;;;;;;;;5074389;28;20203;-48
2022/03/24 03:21:52;;;;;;;40.83;21.80;;;;;;;;;;5072221;28;20642;-47
2022/03/24 03:24:22;;;;;;;46.00;21.33;;;;;;;;;;5071575;28;20261;-51
2022/03/24 03:26:50;;;;;;;35.17;20.23;;;;;;;;;;5053842;28;20254;-49
2022/03/24 03:29:17;;;;;;;36.93;21.73;;;;;;;;;;5053642;28;20196;-48
2022/03/24 03:31:45;;;;;;;38.37;22.03;;;;;;;;;;5054088;28;20287;-49
2022/03/24 03:34:12;;;;;;;41.30;21.33;;;;;;;;;;5057571;28;20219;-48
2022/03/24 03:36:40;;;;;;;39.70;21.23;;;;;;;;;;5058040;28;20270;-48
2022/03/24 03:39:08;;;;;;;41.73;20.50;;;;;;;;;;5057669;28;20261;-49
2022/03/24 03:41:36;;;;;;;37.20;22.43;;;;;;;;;;5057841;28;20204;-48
2022/03/24 03:44:04;;;;;;;43.13;21.90;;;;;;;;;;5057852;28;20535;-51
2022/03/24 03:46:31;;;;;;;36.97;21.17;;;;;;;;;;5058110;28;20290;-48
2022/03/24 03:48:59;;;;;;;39.17;22.03;;;;;;;;;;5057505;28;20291;-48
2022/03/24 03:51:27;;;;;;;39.63;22.20;;;;;;;;;;5057511;28;20234;-48
2022/03/24 03:53:55;;;;;;;41.40;21.30;;;;;;;;;;5057566;28;20666;-48
2022/03/24 03:56:22;;;;;;;48.17;22.10;;;;;;;;;;5057217;28;20678;-48
2022/03/24 03:58:49;;;;;;;35.60;22.23;;;;;;;;;;5057124;28;20224;-48
2022/03/24 04:01:17;;;;;;;46.00;23.50;;;;;;;;;;5057091;28;20222;-48
2022/03/24 04:03:44;;;;;;;40.77;22.10;;;;;;;;;;5057377;28;20239;-48
2022/03/24 04:06:12;;;;;;;40.07;22.00;;;;;;;;;;5057323;28;20208;-49
2022/03/24 04:08:42;;;;;;;42.40;22.30;;;;;;;;;;5057102;28;20204;-48
2022/03/24 04:11:10;;;;;;;41.80;22.20;;;;;;;;;;5056902;28;20548;-47
2022/03/24 04:13:39;;;;;;;44.93;23.23;;;;;;;;;;5056796;28;20269;-52
2022/03/24 04:16:11;;;;;;;40.90;23.13;;;;;;;;;;5056846;28;20703;-49
2022/03/24 04:18:43;;;;;;;37.77;22.10;;;;;;;;;;5056716;28;20270;-49
2022/03/24 04:21:11;;;;;;;43.43;22.50;;;;;;;;;;5056794;28;20228;-50
2022/03/24 04:23:41;;;;;;;44.00;23.20;;;;;;;;;;5056802;28;20212;-48
2022/03/24 04:26:10;;;;;;;47.37;24.00;;;;;;;;;;5056777;28;20224;-51
2022/03/24 04:28:39;;;;;;;40.60;22.73;;;;;;;;;;5056599;28;20204;-53
2022/03/24 04:31:06;;;;;;;40.87;22.73;;;;;;;;;;5056656;28;20422;-52
2022/03/24 04:33:34;;;;;;;46.03;24.00;;;;;;;;;;5056811;28;20222;-53
2022/03/24 04:36:01;;;;;;;43.23;25.30;;;;;;;;;;5056614;28;20319;-49
2022/03/24 04:38:28;;;;;;;44.77;24.93;;;;;;;;;;5056390;28;20224;-53
2022/03/24 04:40:56;;;;;;;48.30;25.27;;;;;;;;;;5056752;28;20279;-50
2022/03/24 04:43:24;;;;;;;43.33;24.07;;;;;;;;;;5056554;28;20519;-48
2022/03/24 04:45:52;;;;;;;46.10;25.87;;;;;;;;;;5055880;28;20675;-51
2022/03/24 04:48:19;;;;;;;43.67;24.83;;;;;;;;;;5056411;28;20234;-51
2022/03/24 04:50:46;;;;;;;42.33;23.67;;;;;;;;;;5056335;28;20262;-50
2022/03/24 04:53:15;;;;;;;40.23;23.93;;;;;;;;;;5056083;28;20291;-52
2022/03/24 04:55:44;;;;;;;42.10;24.50;;;;;;;;;;5055622;28;20258;-48
2022/03/24 04:58:12;;;;;;;45.67;24.20;;;;;;;;;;5075403;28;20234;-51
2022/03/24 05:00:40;;;;;;;40.87;22.97;;;;;;;;;;5075282;28;20307;-48
2022/03/24 05:03:07;;;;;;;39.93;23.47;;;;;;;;;;5075151;28;20235;-49
2022/03/24 05:05:34;;;;;;;40.07;22.73;;;;;;;;;;5075169;28;20755;-52
2022/03/24 05:08:05;;;;;;;42.03;23.47;;;;;;;;;;5075050;28;20609;-49
2022/03/24 05:10:32;;;;;;;42.90;23.33;;;;;;;;;;5074776;28;20360;-52
2022/03/24 05:12:59;;;;;;;42.30;25.03;;;;;;;;;;5075297;28;20319;-49
2022/03/24 05:15:27;;;;;;;39.53;23.13;;;;;;;;;;5075301;28;20261;-51
2022/03/24 05:17:54;;;;;;;39.20;23.40;;;;;;;;;;5075158;28;20239;-54
2022/03/24 05:20:21;;;;;;;41.07;24.23;;;;;;;;;;5073686;28;20310;-50
2022/03/24 05:22:48;;;;;;;37.67;22.57;;;;;;;;;;5070266;28;20685;-51
2022/03/24 05:25:29;;;;;;;42.33;24.00;;;;;;;;;;5068183;28;20305;-49
2022/03/24 05:27:59;;;;;;;41.90;23.40;;;;;;;;;;5074335;28;20615;-49
2022/03/24 05:30:27;;;;;;;36.30;22.50;;;;;;;;;;5069097;28;20602;-52
2022/03/24 05:32:54;;;;;;;42.90;24.80;;;;;;;;;;5074446;28;20292;-49
2022/03/24 05:35:22;;;;;;;38.87;24.27;;;;;;;;;;5075037;28;20332;-49
2022/03/24 05:37:49;;;;;;;42.50;23.83;;;;;;;;;;5074608;28;20255;-51
2022/03/24 05:40:17;;;;;;;39.70;25.00;;;;;;;;;;5074143;28;20730;-49
2022/03/24 05:42:44;;;;;;;38.43;24.07;;;;;;;;;;5074532;28;20273;-48
2022/03/24 05:45:11;;;;;;;38.93;22.07;;;;;;;;;;5074143;28;20318;-47
2022/03/24 05:47:39;;;;;;;41.73;21.97;;;;;;;;;;5073956;28;20231;-49
2022/03/24 05:50:10;;;;;;;34.80;19.93;;;;;;;;;;5073663;28;20729;-48
2022/03/24 05:53:05;;;;;;;36.03;21.47;;;;;;;;;;5053064;28;20212;-49
2022/03/24 05:55:35;;;;;;;37.07;21.70;;;;;;;;;;5054148;28;20330;-48
2022/03/24 05:58:02;;;;;;;39.03;22.20;;;;;;;;;;5053394;28;20244;-49
2022/03/24 06:00:30;;;;;;;37.77;22.17;;;;;;;;;;5054365;28;20306;-50
2022/03/24 06:02:59;;;;;;;33.93;20.37;;;;;;;;;;5036889;28;20228;-51
2022/03/24 06:05:26;;;;;;;32.17;20.63;;;;;;;;;;5054039;28;20236;-49
2022/03/24 06:07:55;;;;;;;34.40;20.57;;;;;;;;;;5036518;28;20255;-51
2022/03/24 06:10:22;;;;;;;32.53;20.13;;;;;;;;;;5066661;28;20364;-49
2022/03/24 06:12:50;;;;;;;36.50;20.33;;;;;;;;;;5057225;28;20309;-49
2022/03/24 06:15:17;;;;;;;32.03;19.37;;;;;;;;;;5057623;28;20231;-48
2022/03/24 06:17:45;;;;;;;36.20;21.57;;;;;;;;;;5075763;28;20317;-50
2022/03/24 06:20:13;;;;;;;35.73;20.13;;;;;;;;;;5074796;28;20199;-48
2022/03/24 06:22:52;;;;;;;36.40;20.30;;;;;;;;;;5074814;28;20297;-49
2022/03/24 06:25:20;;;;;;;33.57;19.43;;;;;;;;;;5074837;28;20210;-49
2022/03/24 06:27:49;;;;;;;33.33;19.60;;;;;;;;;;5074758;28;20207;-49
2022/03/24 06:30:17;;;;;;;37.37;21.10;;;;;;;;;;5074829;28;20628;-49
2022/03/24 06:32:44;;;;;;;37.20;21.13;;;;;;;;;;5074608;28;20290;-48
2022/03/24 06:35:12;;;;;;;29.37;18.43;;;;;;;;;;5074895;28;20245;-49
2022/03/24 06:37:42;;;;;;;35.10;19.17;;;;;;;;;;5075265;28;20280;-48
2022/03/24 06:40:11;;;;;;;36.17;19.20;;;;;;;;;;5075472;28;20282;-48
2022/03/24 06:42:38;;;;;;;34.17;19.13;;;;;;;;;;5075087;28;20272;-48
2022/03/24 06:45:06;;;;;;;31.80;19.53;;;;;;;;;;5074772;28;20274;-49
2022/03/24 06:47:34;;;;;;;34.47;20.73;;;;;;;;;;5074704;28;20634;-48
2022/03/24 06:50:02;;;;;;;36.60;19.10;;;;;;;;;;5074706;28;20287;-48
2022/03/24 06:52:29;;;;;;;30.90;18.30;;;;;;;;;;5074725;28;20257;-49
2022/03/24 06:54:57;;;;;;;30.40;18.83;;;;;;;;;;5074393;28;20754;-50
2022/03/24 06:57:24;;;;;;;32.20;19.23;;;;;;;;;;5074496;28;20199;-51
2022/03/24 06:59:51;;;;;;;29.73;18.10;;;;;;;;;;5074595;28;20566;-49
2022/03/24 07:02:18;;;;;;;27.63;16.40;;;;;;;;;;5074402;28;20214;-50
2022/03/24 07:04:52;;;;;;;32.03;17.37;;;;;;;;;;5074627;28;20600;-52
2022/03/24 07:07:20;;;;;;;28.23;16.67;;;;;;;;;;5075186;28;20203;-51
2022/03/24 07:09:47;;;;;;;31.90;16.17;;;;;;;;;;5078558;28;20199;-48
2022/03/24 07:12:17;;;;;;;28.47;16.40;;;;;;;;;;5078637;28;20267;-49
2022/03/24 07:14:45;;;;;;;27.03;15.57;;;;;;;;;;5061491;28;20319;-50
2022/03/24 07:17:12;;;;;;;27.43;15.20;;;;;;;;;;5078472;28;20195;-49
2022/03/24 07:19:40;;;;;;;27.33;15.97;;;;;;;;;;5078570;28;20246;-50
2022/03/24 07:22:08;;;;;;;26.93;15.67;;;;;;;;;;5078083;28;20723;-50
2022/03/24 07:24:35;;;;;;;22.57;13.57;;;;;;;;;;5078033;28;20661;-50
2022/03/24 07:27:02;;;;;;;24.60;13.67;;;;;;;;;;5078152;28;20634;-53
2022/03/24 07:29:29;;;;;;;26.73;13.90;;;;;;;;;;5077997;28;20286;-49
2022/03/24 07:31:57;;;;;;;22.60;14.07;;;;;;;;;;5078224;28;20227;-48
2022/03/24 07:34:25;;;;;;;24.13;14.87;;;;;;;;;;5077867;28;20726;-53
2022/03/24 07:36:52;;;;;;;29.53;14.73;;;;;;;;;;5078115;28;20204;-49
2022/03/24 07:39:20;;;;;;;25.63;13.47;;;;;;;;;;5078032;28;20677;-49
2022/03/24 07:41:47;;;;;;;23.93;13.70;;;;;;;;;;5077960;28;20203;-49
2022/03/24 07:44:14;;;;;;;24.03;13.70;;;;;;;;;;5077661;28;20203;-50
2022/03/24 07:46:41;;;;;;;19.87;12.03;;;;;;;;;;5077693;28;20225;-49
2022/03/24 07:49:09;;;;;;;22.00;11.47;;;;;;;;;;5078029;28;20221;-49
2022/03/24 07:51:36;;;;;;;21.37;11.17;;;;;;;;;;5077673;28;20286;-49
2022/03/24 07:54:04;;;;;;;19.90;10.77;;;;;;;;;;5077795;28;20201;-50
2022/03/24 07:56:32;;;;;;;16.27;10.03;;;;;;;;;;5077524;28;20269;-49
2022/03/24 07:58:59;;;;;;;18.53;11.60;;;;;;;;;;5077285;28;20687;-49
2022/03/24 08:01:34;;;;;;;23.13;10.87;;;;;;;;;;5077467;28;20703;-49
2022/03/24 08:04:03;;;;;;;17.73;11.00;;;;;;;;;;5078307;28;20304;-48
2022/03/24 08:06:31;;;;;;;21.57;11.13;;;;;;;;;;5060193;28;20199;-49
2022/03/24 08:08:59;;;;;;;18.03;9.60;;;;;;;;;;5077152;28;20290;-48
2022/03/24 08:11:26;;;;;;;16.73;10.03;;;;;;;;;;5077325;28;20213;-48
2022/03/24 08:13:55;;;;;;;18.97;11.17;;;;;;;;;;5077880;28;20289;-48
2022/03/24 08:16:24;;;;;;;19.13;11.37;;;;;;;;;;5077817;28;20204;-48
2022/03/24 08:18:53;;;;;;;17.47;10.70;;;;;;;;;;5076673;28;20525;-46
2022/03/24 08:21:21;;;;;;;16.33;9.80;;;;;;;;;;5076408;28;20642;-49
2022/03/24 08:23:48;;;;;;;17.93;9.27;;;;;;;;;;5077023;28;20234;-48
2022/03/24 08:26:15;;;;;;;13.77;8.40;;;;;;;;;;5077848;28;20233;-48
2022/03/24 08:28:42;;;;;;;13.90;9.00;;;;;;;;;;5077189;28;20203;-48
2022/03/24 08:31:09;;;;;;;15.33;9.47;;;;;;;;;;5077136;28;20199;-48
2022/03/24 08:33:37;;;;;;;15.70;9.17;;;;;;;;;;5077060;28;20199;-48
2022/03/24 08:36:04;;;;;;;16.40;9.53;;;;;;;;;;5077375;28;20543;-48
2022/03/24 08:38:31;;;;;;;14.10;8.33;;;;;;;;;;5076900;28;20235;-49
2022/03/24 08:40:58;;;;;;;17.27;9.40;;;;;;;;;;5076758;28;20241;-48
2022/03/24 08:43:25;;;;;;;14.87;8.67;;;;;;;;;;5076945;28;20202;-49
2022/03/24 08:45:52;;;;;;;14.30;7.93;;;;;;;;;;5076971;28;20294;-48
2022/03/24 08:48:19;;;;;;;19.90;9.10;;;;;;;;;;5076658;28;20556;-49
2022/03/24 08:50:46;;;;;;;15.63;8.40;;;;;;;;;;5076435;28;20579;-49
2022/03/24 08:53:13;;;;;;;15.80;7.53;;;;;;;;;;5076441;28;20206;-49
2022/03/24 08:55:41;;;;;;;14.10;8.43;;;;;;;;;;5076717;28;20238;-48
2022/03/24 08:58:08;;;;;;;19.57;8.70;;;;;;;;;;5076464;28;20298;-48
2022/03/24 09:00:35;;;;;;;10.13;6.90;;;;;;;;;;5076664;28;20219;-49
2022/03/24 09:03:02;;;;;;;16.40;8.10;;;;;;;;;;5058707;28;20669;-51
2022/03/24 09:05:30;;;;;;;10.57;6.80;;;;;;;;;;5058900;28;20310;-49
2022/03/24 09:07:57;;;;;;;12.53;7.00;;;;;;;;;;5076127;28;20215;-50
2022/03/24 09:10:24;;;;;;;14.03;8.07;;;;;;;;;;5059059;28;20282;-53
2022/03/24 09:12:51;;;;;;;11.07;8.07;;;;;;;;;;5076168;28;20199;-53
2022/03/24 09:15:19;;;;;;;14.23;7.73;;;;;;;;;;5076481;28;20202;-49
2022/03/24 09:17:47;;;;;;;15.43;7.43;;;;;;;;;;5075879;28;20219;-48
2022/03/24 09:20:18;;;;;;;12.45;7.35;;;;;;;;;;5076126;28;20284;-50
2022/03/24 09:22:47;;;;;;;9.87;6.10;;;;;;;;;;5075870;28;20203;-51
2022/03/24 09:25:16;;;;;;;11.40;7.30;;;;;;;;;;5076298;28;20660;-49
2022/03/24 09:27:43;;;;;;;16.57;8.10;;;;;;;;;;5076026;28;20533;-49
2022/03/24 09:30:18;;;;;;;12.43;7.57;;;;;;;;;;5075853;28;20215;-50
2022/03/24 09:32:48;;;;;;;13.52;6.32;;;;;;;;;;5075885;28;20688;-49
2022/03/24 09:35:16;;;;;;;14.75;8.57;;;;;;;;;;5075996;28;20207;-49
2022/03/24 09:37:43;;;;;;;13.68;8.25;;;;;;;;;;5075646;28;20622;-49
2022/03/24 09:40:11;;;;;;;13.50;7.50;;;;;;;;;;5075803;28;20227;-49
2022/03/24 09:42:39;;;;;;;15.30;8.30;;;;;;;;;;5075840;28;20229;-50
2022/03/24 09:45:09;;;;;;;12.83;8.73;;;;;;;;;;5075615;28;20615;-50
2022/03/24 09:47:36;;;;;;;13.25;8.98;;;;;;;;;;5075366;28;20257;-50
2022/03/24 09:50:05;;;;;;;13.63;8.17;;;;;;;;;;5075424;28;20203;-51
2022/03/24 09:52:32;;;;;;;13.82;9.00;;;;;;;;;;5075515;28;20264;-48
2022/03/24 09:54:59;;;;;;;14.85;8.95;;;;;;;;;;5075253;28;20695;-49
2022/03/24 09:57:27;;;;;;;16.15;8.40;;;;;;;;;;5075395;28;20210;-49
2022/03/24 09:59:55;;;;;;;20.05;9.70;;;;;;;;;;5075075;28;20616;-51
2022/03/24 10:02:22;;;;;;;15.80;8.25;;;;;;;;;;5075206;28;20199;-50
2022/03/24 10:04:54;;;;;;;16.38;9.38;;;;;;;;;;5075188;28;20241;-50
2022/03/24 10:07:25;;;;;;;15.00;8.32;;;;;;;;;;5075595;28;20582;-50
2022/03/24 10:09:55;;;;;;;13.10;8.13;;;;;;;;;;5074964;28;20622;-49
2022/03/24 10:12:30;;;;;;;13.35;7.50;;;;;;;;;;5075506;28;20288;-48
2022/03/24 10:15:10;;;;;;;16.13;9.82;;;;;;;;;;5075270;28;20187;-50
2022/03/24 10:17:39;;;;;;;16.70;9.38;;;;;;;;;;5075406;28;20260;-49
2022/03/24 10:20:09;;;;;;;12.57;8.95;;;;;;;;;;5074963;28;20230;-50
2022/03/24 10:22:36;;;;;;;15.85;8.75;;;;;;;;;;5074882;28;20199;-50
2022/03/24 10:25:21;;;;;;;18.85;9.82;;;;;;;;;;5075044;28;20282;-50
2022/03/24 10:28:04;;;;;;;12.45;8.20;;;;;;;;;;5074882;28;20199;-50
2022/03/24 10:30:51;;;;;;;16.70;9.30;;;;;;;;;;5074963;28;20203;-52
2022/03/24 10:33:47;;;;;;;20.23;9.27;;;;;;;;;;5075124;28;20203;-50
2022/03/24 10:36:17;;;;;;;15.45;8.35;;;;;;;;;;5056757;28;20203;-52
2022/03/24 10:38:49;;;;;;;16.38;8.30;;;;;;;;;;5057025;28;20684;-51
2022/03/24 10:41:21;;;;;;;19.40;11.32;;;;;;;;;;5074978;28;20276;-52
2022/03/24 10:43:51;;;;;;;13.50;8.82;;;;;;;;;;5074353;28;20544;-50
2022/03/24 10:46:24;;;;;;;14.40;9.55;;;;;;;;;;5075019;28;20222;-49
2022/03/24 10:48:52;;;;;;;14.25;8.88;;;;;;;;;;5075161;28;20188;-49
2022/03/24 10:51:26;;;;;;;12.50;7.28;;;;;;;;;;5074596;28;20322;-49
2022/03/24 10:54:15;;;;;;;12.40;7.13;;;;;;;;;;5074676;28;20298;-50
2022/03/24 10:56:58;;;;;;;14.20;7.90;;;;;;;;;;5074592;28;20207;-51
2022/03/24 10:59:28;;;;;;;13.90;9.05;;;;;;;;;;5074922;28;20207;-53
2022/03/24 11:01:56;;;;;;;12.77;8.30;;;;;;;;;;5074750;28;20218;-49
2022/03/24 11:04:23;;;;;;;14.10;9.07;;;;;;;;;;5074295;28;20258;-49
2022/03/24 11:06:52;;;;;;;16.70;7.93;;;;;;;;;;5075187;28;20205;-50
2022/03/24 11:09:37;;;;;;;12.02;7.53;;;;;;;;;;5074609;28;20634;-50
2022/03/24 11:12:24;;;;;;;14.18;7.20;;;;;;;;;;5074814;28;20201;-50
2022/03/24 11:14:53;;;;;;;16.17;9.38;;;;;;;;;;5074330;28;20230;-50
2022/03/24 11:17:25;;;;;;;15.52;7.38;;;;;;;;;;5074248;28;20626;-50
2022/03/24 11:20:06;;;;;;;11.27;7.82;;;;;;;;;;5074785;28;20292;-50
2022/03/24 11:22:57;;;;;;;16.65;8.25;;;;;;;;;;5057120;28;20231;-49
2022/03/24 11:25:26;;;;;;;11.40;6.18;;;;;;;;;;5074551;28;20219;-51
2022/03/24 11:27:54;;;;;;;14.00;7.13;;;;;;;;;;5074884;28;20199;-51
2022/03/24 11:30:23;;;;;;;11.80;7.43;;;;;;;;;;5074746;28;20207;-50
2022/03/24 11:32:52;;;;;;;11.77;7.07;;;;;;;;;;5074285;28;20199;-49
2022/03/24 11:35:20;;;;;;;11.52;7.03;;;;;;;;;;5074314;28;20200;-50
2022/03/24 11:37:50;;;;;;;13.63;7.90;;;;;;;;;;5074086;28;20272;-50
2022/03/24 11:40:28;;;;;;;12.57;7.35;;;;;;;;;;5074029;28;20662;-49
2022/03/24 11:43:00;;;;;;;16.48;8.57;;;;;;;;;;5074155;28;20286;-51
2022/03/24 11:45:34;;;;;;;13.75;7.78;;;;;;;;;;5057180;28;20223;-49
2022/03/24 11:48:08;;;;;;;15.70;7.90;;;;;;;;;;5074700;28;20244;-51
2022/03/24 11:50:46;;;;;;;12.63;6.97;;;;;;;;;;5074870;28;20299;-50
2022/03/24 11:53:25;;;;;;;10.70;7.63;;;;;;;;;;5073960;28;20660;-49
2022/03/24 11:55:59;;;;;;;11.70;7.68;;;;;;;;;;5061079;28;20195;-51
2022/03/24 11:58:38;;;;;;;12.77;6.13;;;;;;;;;;5077750;28;20694;-50
2022/03/24 12:01:18;;;;;;;12.27;7.78;;;;;;;;;;5078338;28;20199;-52
2022/03/24 12:03:51;;;;;;;12.10;7.05;;;;;;;;;;5077295;28;20630;-50
2022/03/24 12:06:18;;;;;;;12.48;6.70;;;;;;;;;;5060171;28;20531;-49
2022/03/24 12:08:47;;;;;;;12.32;7.32;;;;;;;;;;5077391;28;20203;-50
2022/03/24 12:11:32;;;;;;;12.93;7.70;;;;;;;;;;5077765;28;20207;-49
2022/03/24 12:14:03;;;;;;;12.70;7.82;;;;;;;;;;5077510;28;20211;-49
2022/03/24 12:16:30;;;;;;;12.55;7.60;;;;;;;;;;5077332;28;20290;-50
2022/03/24 12:18:57;;;;;;;15.77;7.93;;;;;;;;;;5077272;28;20531;-50
2022/03/24 12:21:27;;;;;;;11.45;6.72;;;;;;;;;;5077386;28;20205;-51
2022/03/24 12:24:19;;;;;;;11.15;7.85;;;;;;;;;;5077402;28;20530;-50
2022/03/24 12:26:49;;;;;;;12.73;6.57;;;;;;;;;;5077168;28;20707;-50
2022/03/24 12:29:17;;;;;;;11.93;7.40;;;;;;;;;;5076987;28;20233;-50
2022/03/24 12:32:10;;;;;;;13.45;8.32;;;;;;;;;;5076830;28;20738;-51
2022/03/24 12:34:40;;;;;;;10.57;6.60;;;;;;;;;;5076866;28;20215;-50
2022/03/24 12:37:27;;;;;;;11.57;7.60;;;;;;;;;;5076926;28;20709;-49
2022/03/24 12:40:09;;;;;;;11.98;6.90;;;;;;;;;;5076480;28;20707;-51
2022/03/24 12:42:45;;;;;;;12.88;6.90;;;;;;;;;;5077025;28;20200;-54
2022/03/24 12:45:27;;;;;;;15.43;7.60;;;;;;;;;;5076854;28;20294;-50
2022/03/24 12:47:59;;;;;;;11.27;7.45;;;;;;;;;;5071855;28;20228;-51
2022/03/24 12:50:28;;;;;;;17.13;7.00;;;;;;;;;;5075522;28;20613;-52
2022/03/24 12:52:56;;;;;;;11.15;7.20;;;;;;;;;;5075853;28;20223;-49
2022/03/24 12:55:35;;;;;;;17.00;7.93;;;;;;;;;;5076243;28;20231;-54
2022/03/24 12:58:12;;;;;;;14.68;7.53;;;;;;;;;;5075603;28;20284;-50
2022/03/24 13:00:51;;;;;;;11.13;7.72;;;;;;;;;;5075276;28;20265;-53
2022/03/24 13:03:19;;;;;;;13.35;6.93;;;;;;;;;;5074876;28;20227;-50
2022/03/24 13:05:51;;;;;;;13.40;7.53;;;;;;;;;;5075135;28;20238;-51
2022/03/24 13:08:18;;;;;;;10.18;6.35;;;;;;;;;;5075448;28;20630;-50
2022/03/24 13:10:53;;;;;;;11.07;7.05;;;;;;;;;;5075387;28;20255;-50
2022/03/24 13:13:21;;;;;;;13.82;7.25;;;;;;;;;;5075424;28;20237;-50
2022/03/24 13:15:49;;;;;;;10.18;6.50;;;;;;;;;;5075694;28;20689;-50
2022/03/24 13:18:16;;;;;;;10.40;7.05;;;;;;;;;;5075010;28;20229;-51
2022/03/24 13:20:48;;;;;;;12.52;6.40;;;;;;;;;;5075032;28;20336;-50
2022/03/24 13:23:17;;;;;;;13.23;6.70;;;;;;;;;;5075253;28;20231;-50
2022/03/24 13:25:49;;;;;;;13.13;6.60;;;;;;;;;;5075004;28;20231;-51
2022/03/24 13:28:18;;;;;;;9.25;6.90;;;;;;;;;;5075341;28;20223;-54
2022/03/24 13:30:45;;;;;;;13.45;6.95;;;;;;;;;;5074862;28;20306;-51
2022/03/24 13:33:14;;;;;;;8.93;5.53;;;;;;;;;;5065923;28;20231;-54
2022/03/24 13:35:49;;;;;;;15.45;6.35;;;;;;;;;;5062400;28;20249;-51
2022/03/24 13:38:20;;;;;;;16.15;6.30;;;;;;;;;;5073210;28;20231;-53
2022/03/24 13:40:53;;;;;;;11.20;6.57;;;;;;;;;;5074714;28;20235;-55
2022/03/24 13:43:22;;;;;;;12.27;6.22;;;;;;;;;;5074085;28;20231;-53
2022/03/24 13:45:50;;;;;;;12.40;7.57;;;;;;;;;;5074242;28;20241;-55
2022/03/24 13:48:22;;;;;;;10.63;6.05;;;;;;;;;;5074579;28;20249;-56
2022/03/24 13:50:59;;;;;;;7.18;4.90;;;;;;;;;;5074536;28;20219;-56
2022/03/24 13:53:28;;;;;;;14.07;6.57;;;;;;;;;;5074246;28;20717;-54
2022/03/24 13:56:08;;;;;;;14.52;6.78;;;;;;;;;;5074364;28;20298;-55
2022/03/24 13:58:37;;;;;;;12.85;6.15;;;;;;;;;;5072774;28;20233;-53
2022/03/24 14:01:07;;;;;;;9.68;6.30;;;;;;;;;;5073674;28;20614;-54
2022/03/24 14:03:42;;;;;;;8.32;4.30;;;;;;;;;;5071452;28;20292;-51
2022/03/24 14:06:12;;;;;;;13.95;6.03;;;;;;;;;;5057389;28;20222;-54
2022/03/24 14:08:46;;;;;;;12.18;4.95;;;;;;;;;;5073023;28;20689;-51
2022/03/24 14:11:21;;;;;;;9.80;5.40;;;;;;;;;;5071470;28;20723;-51
2022/03/24 14:13:50;;;;;;;14.13;5.70;;;;;;;;;;5075327;28;20261;-50
2022/03/24 14:16:28;;;;;;;11.05;5.45;;;;;;;;;;5073832;28;20237;-51
2022/03/24 14:19:10;;;;;;;11.57;6.22;;;;;;;;;;5072995;28;20230;-52
2022/03/24 14:21:41;;;;;;;11.10;5.95;;;;;;;;;;5073432;28;20256;-51
2022/03/24 14:24:10;;;;;;;13.63;5.82;;;;;;;;;;5073431;28;20227;-51
2022/03/24 14:26:37;;;;;;;11.27;6.03;;;;;;;;;;5068957;28;20250;-51
2022/03/24 14:29:15;;;;;;;11.30;6.53;;;;;;;;;;5070677;28;20738;-51
2022/03/24 14:31:43;;;;;;;11.25;5.22;;;;;;;;;;5072412;28;20223;-52
2022/03/24 14:34:16;;;;;;;11.77;6.30;;;;;;;;;;5073092;28;20218;-54
2022/03/24 14:36:46;;;;;;;11.45;6.40;;;;;;;;;;5070545;28;20231;-54
2022/03/24 14:39:14;;;;;;;9.85;6.22;;;;;;;;;;5073116;28;20297;-53